KPSP/PSP METAR and TAF weather

Enter ICAO airport designator
Station Type Date Time Source
KPSP METAR 2020/06/05 11:53 UTC NOAA

KPSP 051153Z AUTO 14007KT 10SM CLR 26/14 A2962 RMK AO2 SLP024 T02560139 10311 20256 51004


Station Type Date Time Source
KPSP Decoded METAR 2020/06/05 11:53 UTC NOAA

PALM SPRINGS REGIONAL AIRPORT , CA, United States (KPSP) 33-50N 116-30W 135M
Jun 05, 2020 - 07:53 AM EDT / 2020.06.05 1153 UTC
Wind: from the SE (140 degrees) at 8 MPH (7 KT):0
Visibility: 10 mile(s):0
Sky conditions: clear
Temperature: 78.1 F (25.6 C)
Dew Point: 57.0 F (13.9 C)
Relative Humidity: 48%
Pressure (altimeter): 29.62 in. Hg (1003 hPa)
Pressure tendency: 0.01 inches (0.4 hPa) higher than three hours ago
ob: KPSP 051153Z AUTO 14007KT 10SM CLR 26/14 A2962 RMK AO2 SLP024 T02560139 10311 20256 51004
cycle: 12

Station Type Date Time Source
KPSP TAF 2020/06/05 12:30 UTC NOAA

TAF KPSP 051127Z 0512/0612 VRB05KT P6SM BKN150
FM051900 32013G23KT P6SM BKN150
FM052300 32020G30KT P6SM SCT150
FM060500 31012G20KT P6SM SCT150

Example: see airport list